createdAt,value
2019-02-27T00:00:22.179Z,102616.22
2019-02-27T00:02:50.729Z,102613.88
2019-02-27T00:05:19.278Z,102613.11
2019-02-27T00:07:47.745Z,102617.14
2019-02-27T00:10:16.211Z,102617.55
2019-02-27T00:12:44.782Z,102610.89
2019-02-27T00:15:13.317Z,102614.28
2019-02-27T00:17:41.812Z,102616.53
2019-02-27T00:20:10.478Z,102616.02
2019-02-27T00:22:38.995Z,102617.35
2019-02-27T00:25:07.630Z,102612.95
2019-02-27T00:27:36.125Z,102606.67
2019-02-27T00:30:06.539Z,102606.23
2019-02-27T00:32:35.044Z,102599.13
2019-02-27T00:35:06.482Z,102595.17
2019-02-27T00:37:33.826Z,102584.88
2019-02-27T00:40:05.404Z,102593.84
2019-02-27T00:42:33.817Z,102590.27
2019-02-27T00:45:06.863Z,102583.58
2019-02-27T00:47:32.692Z,102587.60
2019-02-27T00:50:05.810Z,102587.61
2019-02-27T00:52:31.381Z,102586.65
2019-02-27T00:55:03.955Z,102586.68
2019-02-27T00:57:30.077Z,102592.00
2019-02-27T00:59:58.583Z,102587.50
2019-02-27T01:02:27.088Z,102586.58
2019-02-27T01:04:55.683Z,102585.73
2019-02-27T01:07:24.178Z,102585.22
2019-02-27T01:09:52.647Z,102584.39
2019-02-27T01:12:22.972Z,102583.00
2019-02-27T01:14:52.009Z,102581.16
2019-02-27T01:17:20.915Z,102578.86
2019-02-27T01:19:50.717Z,102578.90
2019-02-27T01:22:19.280Z,102571.40
2019-02-27T01:24:49.907Z,102572.28
2019-02-27T01:27:17.986Z,102575.42
2019-02-27T01:29:50.911Z,102576.20
2019-02-27T01:32:16.712Z,102574.05
2019-02-27T01:34:45.173Z,102569.55
2019-02-27T01:37:13.682Z,102565.00
2019-02-27T01:39:44.074Z,102561.82
2019-02-27T01:42:12.390Z,102557.03
2019-02-27T01:44:44.019Z,102562.23
2019-02-27T01:47:13.237Z,102564.97
2019-02-27T01:49:41.722Z,102561.90
2019-02-27T01:52:10.211Z,102559.23
2019-02-27T01:54:38.686Z,102557.84
2019-02-27T01:57:07.182Z,102553.41
2019-02-27T01:59:35.657Z,102547.16
2019-02-27T02:02:04.328Z,102549.78
2019-02-27T02:04:32.886Z,102540.70
2019-02-27T02:07:01.375Z,102545.18
2019-02-27T02:09:37.364Z,102540.84
2019-02-27T02:12:11.651Z,102536.36
2019-02-27T02:14:48.910Z,102535.03
2019-02-27T02:17:26.089Z,102528.39
2019-02-27T02:20:14.093Z,102519.48
2019-02-27T02:22:48.512Z,102517.16
2019-02-27T02:25:25.103Z,102515.81
2019-02-27T02:27:59.092Z,102515.91
2019-02-27T02:30:48.837Z,102513.69
2019-02-27T02:33:45.203Z,102517.59
2019-02-27T02:36:25.070Z,102513.16
2019-02-27T02:38:58.415Z,102506.08
2019-02-27T02:41:48.318Z,102501.56
2019-02-27T02:44:25.796Z,102492.75
2019-02-27T02:47:09.279Z,102498.91
2019-02-27T02:49:49.130Z,102496.66
2019-02-27T02:52:40.779Z,102506.39
2019-02-27T02:55:21.924Z,102494.70
2019-02-27T02:58:11.337Z,102494.30
2019-02-27T03:00:41.633Z,102505.80
2019-02-27T03:03:28.158Z,102501.43
2019-02-27T03:06:11.392Z,102488.55
2019-02-27T03:09:17.267Z,102488.54
2019-02-27T03:12:03.641Z,102489.30
2019-02-27T03:14:53.256Z,102485.30
2019-02-27T03:17:32.163Z,102484.97
2019-02-27T03:20:20.557Z,102480.88
2019-02-27T03:23:15.708Z,102476.41
2019-02-27T03:26:04.899Z,102478.27
2019-02-27T03:28:55.898Z,102472.52
2019-02-27T03:31:27.439Z,102469.23
2019-02-27T03:34:17.270Z,102475.03
2019-02-27T03:37:20.372Z,102466.97
2019-02-27T03:40:14.306Z,102468.00
2019-02-27T03:43:20.453Z,102468.15
2019-02-27T03:46:06.320Z,102466.28
2019-02-27T03:48:54.828Z,102467.31
2019-02-27T03:51:29.091Z,102464.13
2019-02-27T03:54:03.168Z,102463.68
2019-02-27T03:56:57.239Z,102462.34
2019-02-27T03:59:28.791Z,102458.31
2019-02-27T04:02:30.793Z,102459.74
2019-02-27T04:05:20.295Z,102453.40
2019-02-27T04:08:08.552Z,102452.02
2019-02-27T04:10:36.799Z,102450.64
2019-02-27T04:13:05.265Z,102462.42
2019-02-27T04:15:34.422Z,102450.15
2019-02-27T04:18:01.756Z,102449.80
2019-02-27T04:20:30.273Z,102449.87
2019-02-27T04:22:58.748Z,102447.31
2019-02-27T04:25:31.087Z,102439.79
2019-02-27T04:27:57.450Z,102445.05
2019-02-27T04:30:25.938Z,102435.26
2019-02-27T04:32:54.407Z,102439.73
2019-02-27T04:35:22.892Z,102437.04
2019-02-27T04:37:53.898Z,102432.61
2019-02-27T04:40:21.604Z,102434.22
2019-02-27T04:42:50.128Z,102440.52
2019-02-27T04:45:18.601Z,102437.91
2019-02-27T04:47:47.088Z,102433.73
2019-02-27T04:50:15.565Z,102430.25
2019-02-27T04:52:44.050Z,102430.64
2019-02-27T04:55:15.353Z,102432.06
2019-02-27T04:57:42.745Z,102425.88
2019-02-27T05:00:12.056Z,102423.66
2019-02-27T05:02:40.536Z,102421.02
2019-02-27T05:05:09.463Z,102416.09
2019-02-27T05:07:37.944Z,102416.98
2019-02-27T05:10:08.623Z,102414.28
2019-02-27T05:12:37.130Z,102411.41
2019-02-27T05:15:08.040Z,102417.71
2019-02-27T05:17:36.555Z,102414.61
2019-02-27T05:20:11.661Z,102409.81
2019-02-27T05:22:37.985Z,102411.23
2019-02-27T05:25:08.244Z,102409.42
2019-02-27T05:27:36.723Z,102406.27
2019-02-27T05:30:12.013Z,102413.40
2019-02-27T05:32:38.493Z,102412.50
2019-02-27T05:35:07.215Z,102408.81
2019-02-27T05:37:36.088Z,102405.71
2019-02-27T05:40:08.949Z,102407.53
2019-02-27T05:42:39.056Z,102408.08
2019-02-27T05:45:10.969Z,102402.73
2019-02-27T05:47:44.676Z,102406.66
2019-02-27T05:50:11.843Z,102404.05
2019-02-27T05:52:40.306Z,102404.39
2019-02-27T05:55:09.053Z,102403.08
2019-02-27T05:57:37.604Z,102402.23
2019-02-27T06:00:14.784Z,102400.84
2019-02-27T06:02:44.994Z,102401.73
2019-02-27T06:05:13.506Z,102396.49
2019-02-27T06:07:42.002Z,102397.21
2019-02-27T06:10:13.404Z,102397.81
2019-02-27T06:12:41.983Z,102395.95
2019-02-27T06:15:13.394Z,102392.90
2019-02-27T06:17:43.593Z,102394.72
2019-02-27T06:20:12.577Z,102393.78
2019-02-27T06:22:41.234Z,102400.02
2019-02-27T06:25:21.563Z,102394.56
2019-02-27T06:27:47.760Z,102391.52
2019-02-27T06:30:18.468Z,102386.81
2019-02-27T06:32:46.997Z,102384.17
2019-02-27T06:35:15.930Z,102391.28
2019-02-27T06:37:44.467Z,102383.33
2019-02-27T06:40:15.310Z,102378.41
2019-02-27T06:42:44.449Z,102378.32
2019-02-27T06:45:17.813Z,102375.16
2019-02-27T06:47:46.307Z,102383.52
2019-02-27T06:50:16.223Z,102369.86
2019-02-27T06:52:44.949Z,102377.47
2019-02-27T06:55:14.781Z,102371.44
2019-02-27T06:57:43.328Z,102370.17
2019-02-27T07:00:14.879Z,102367.16
2019-02-27T07:02:43.347Z,102366.72
2019-02-27T07:05:13.604Z,102368.92
2019-02-27T07:07:42.512Z,102364.11
2019-02-27T07:10:19.448Z,102372.61
2019-02-27T07:12:46.334Z,102366.05
2019-02-27T07:15:19.392Z,102370.16
2019-02-27T07:17:47.853Z,102365.34
2019-02-27T07:20:16.979Z,102362.28
2019-02-27T07:22:46.692Z,102368.55
2019-02-27T07:25:17.775Z,102362.84
2019-02-27T07:27:46.309Z,102365.13
2019-02-27T07:30:19.706Z,102357.23
2019-02-27T07:32:48.532Z,102353.75
2019-02-27T07:35:17.287Z,102351.13
2019-02-27T07:37:48.021Z,102350.30
2019-02-27T07:40:17.246Z,102347.30
2019-02-27T07:42:45.714Z,102345.58
2019-02-27T07:45:22.707Z,102338.58
2019-02-27T07:47:51.463Z,102339.06
2019-02-27T07:50:23.254Z,102343.12
2019-02-27T07:52:52.177Z,102339.63
2019-02-27T07:55:23.062Z,102340.15
2019-02-27T07:57:51.283Z,102340.25
2019-02-27T08:00:21.864Z,102337.66
2019-02-27T08:02:50.395Z,102331.48
2019-02-27T08:05:19.027Z,102328.40
2019-02-27T08:07:49.105Z,102326.59
2019-02-27T08:10:22.932Z,102327.43
2019-02-27T08:12:55.658Z,102328.23
2019-02-27T08:15:22.002Z,102320.95
2019-02-27T08:17:50.599Z,102323.89
2019-02-27T08:20:21.039Z,102312.97
2019-02-27T08:22:49.826Z,102317.17
2019-02-27T08:25:21.324Z,102318.66
2019-02-27T08:27:49.801Z,102316.23
2019-02-27T08:30:20.896Z,102312.95
2019-02-27T08:32:49.456Z,102310.36
2019-02-27T08:35:17.941Z,102310.38
2019-02-27T08:37:46.427Z,102295.75
2019-02-27T08:40:15.563Z,102299.41
2019-02-27T08:42:44.039Z,102295.14
2019-02-27T08:45:20.027Z,102292.30
2019-02-27T08:47:47.543Z,102288.82
2019-02-27T08:50:21.211Z,102297.83
2019-02-27T08:52:51.431Z,102292.99
2019-02-27T08:55:22.550Z,102288.32
2019-02-27T08:57:55.744Z,102282.84
2019-02-27T09:00:26.252Z,102280.80
2019-02-27T09:02:55.817Z,102277.28
2019-02-27T09:05:24.477Z,102266.41
2019-02-27T09:07:52.963Z,102266.66
2019-02-27T09:10:26.677Z,102269.61
2019-02-27T09:13:04.354Z,102266.77
2019-02-27T09:15:24.038Z,102258.33
2019-02-27T09:17:52.544Z,102253.29
2019-02-27T09:20:21.865Z,102246.55
2019-02-27T09:22:50.426Z,102239.17
2019-02-27T09:25:23.580Z,102234.83
2019-02-27T09:27:49.382Z,102234.09
2019-02-27T09:30:19.492Z,102233.01
2019-02-27T09:32:48.010Z,102231.41
2019-02-27T09:35:16.652Z,102222.49
2019-02-27T09:37:45.142Z,102227.73
2019-02-27T09:40:24.635Z,102221.21
2019-02-27T09:42:53.969Z,102209.13
2019-02-27T09:45:35.730Z,102210.75
2019-02-27T09:48:04.969Z,102207.79
2019-02-27T09:50:42.098Z,102202.61
2019-02-27T09:53:10.612Z,102194.73
2019-02-27T09:55:39.245Z,102202.65
2019-02-27T09:58:11.145Z,102196.98
2019-02-27T10:00:41.910Z,102192.70
2019-02-27T10:03:10.470Z,102193.95
2019-02-27T10:05:40.817Z,102192.22
2019-02-27T10:08:10.819Z,102187.23
2019-02-27T10:10:39.478Z,102189.99
2019-02-27T10:13:07.986Z,102181.65
2019-02-27T10:15:36.464Z,102183.28
2019-02-27T10:18:05.944Z,102180.98
2019-02-27T10:20:37.016Z,102178.06
2019-02-27T10:23:04.658Z,102183.69
2019-02-27T10:25:33.121Z,102182.01
2019-02-27T10:28:04.441Z,102169.52
2019-02-27T10:30:31.881Z,102169.52
2019-02-27T10:33:00.375Z,102179.14
2019-02-27T10:35:29.533Z,102167.23
2019-02-27T10:37:58.909Z,102165.08
2019-02-27T10:40:27.772Z,102161.62
2019-02-27T10:42:56.285Z,102153.66
2019-02-27T10:45:24.774Z,102146.50
2019-02-27T10:47:53.277Z,102144.14
2019-02-27T10:50:21.735Z,102137.05
2019-02-27T10:52:50.362Z,102131.58
2019-02-27T10:55:19.992Z,102126.48
2019-02-27T10:57:48.499Z,102131.09
2019-02-27T11:00:27.223Z,102120.89
2019-02-27T11:02:55.709Z,102113.62
2019-02-27T11:05:25.520Z,102112.17
2019-02-27T11:07:54.012Z,102112.41
2019-02-27T11:10:22.728Z,102111.50
2019-02-27T11:12:51.229Z,102107.46
2019-02-27T11:15:20.633Z,102103.02
2019-02-27T11:17:49.128Z,102095.72
2019-02-27T11:20:21.046Z,102094.08
2019-02-27T11:22:48.013Z,102103.81
2019-02-27T11:25:32.573Z,102093.80
2019-02-27T11:28:01.141Z,102092.92
2019-02-27T11:30:35.691Z,102090.96
2019-02-27T11:33:02.715Z,102092.23
2019-02-27T11:35:31.191Z,102080.78
2019-02-27T11:37:59.763Z,102085.64
2019-02-27T11:40:28.735Z,102072.70
2019-02-27T11:42:57.300Z,102075.41
2019-02-27T11:45:25.764Z,102062.70
2019-02-27T11:47:54.421Z,102057.95
2019-02-27T11:50:22.999Z,102045.80
2019-02-27T11:52:52.001Z,102045.52
2019-02-27T11:55:24.274Z,102034.84
2019-02-27T11:57:52.408Z,102029.87
2019-02-27T12:00:23.892Z,102020.14
2019-02-27T12:02:52.572Z,102023.68
2019-02-27T12:05:21.062Z,102016.98
2019-02-27T12:07:51.220Z,102011.02
2019-02-27T12:10:22.351Z,102008.78
2019-02-27T12:12:50.828Z,102012.65
2019-02-27T12:15:20.958Z,102005.47
2019-02-27T12:17:49.435Z,102007.11
2019-02-27T12:20:20.988Z,102007.58
2019-02-27T12:22:49.822Z,101997.29
2019-02-27T12:25:26.875Z,101994.82
2019-02-27T12:27:54.288Z,101990.21
2019-02-27T12:30:24.632Z,101982.74
2019-02-27T12:32:55.708Z,101981.83
2019-02-27T12:35:31.757Z,101982.14
2019-02-27T12:38:00.242Z,101971.66
2019-02-27T12:40:28.745Z,101976.02
2019-02-27T12:42:57.303Z,101961.64
2019-02-27T12:45:29.731Z,101954.01
2019-02-27T12:47:58.505Z,101948.72
2019-02-27T12:50:31.380Z,101950.62
2019-02-27T12:53:00.375Z,101952.77
2019-02-27T12:55:30.323Z,101953.64
2019-02-27T12:57:58.798Z,101947.77
2019-02-27T13:00:31.656Z,101957.66
2019-02-27T13:03:00.706Z,101955.31
2019-02-27T13:05:29.591Z,101951.14
2019-02-27T13:07:58.132Z,101952.77
2019-02-27T13:10:33.022Z,101945.38
2019-02-27T13:12:57.756Z,101941.41
2019-02-27T13:15:30.786Z,101933.98
2019-02-27T13:18:00.179Z,101929.25
2019-02-27T13:20:32.718Z,101920.07
2019-02-27T13:23:03.860Z,101922.38
2019-02-27T13:25:31.422Z,101914.27
2019-02-27T13:27:59.892Z,101913.32
2019-02-27T13:30:29.229Z,101913.44
2019-02-27T13:33:00.745Z,101909.66
2019-02-27T13:35:29.059Z,101904.70
2019-02-27T13:37:57.867Z,101892.74
2019-02-27T13:40:27.706Z,101895.05
2019-02-27T13:42:56.424Z,101897.75
2019-02-27T13:45:29.051Z,101894.64
2019-02-27T13:47:59.060Z,101888.17
2019-02-27T13:50:27.787Z,101879.80
2019-02-27T13:52:56.259Z,101872.48
2019-02-27T13:55:25.147Z,101865.41
2019-02-27T13:57:58.734Z,101854.02
2019-02-27T14:00:34.750Z,101851.16
2019-02-27T14:03:03.225Z,101851.31
2019-02-27T14:05:35.128Z,101848.73
2019-02-27T14:08:02.372Z,101839.80
2019-02-27T14:10:34.501Z,101837.80
2019-02-27T14:13:02.973Z,101828.20
2019-02-27T14:15:31.965Z,101819.67
2019-02-27T14:18:00.560Z,101815.09
2019-02-27T14:20:29.398Z,101807.87
2019-02-27T14:22:58.383Z,101804.30
2019-02-27T14:25:34.373Z,101805.77
2019-02-27T14:28:02.941Z,101804.70
2019-02-27T14:30:46.663Z,101801.84
2019-02-27T14:33:15.139Z,101797.39
2019-02-27T14:35:43.646Z,101795.64
2019-02-27T14:38:12.110Z,101791.12
2019-02-27T14:40:41.271Z,101786.59
2019-02-27T14:43:09.854Z,101782.55
2019-02-27T14:45:40.656Z,101785.59
2019-02-27T14:48:08.589Z,101784.97
2019-02-27T14:50:37.244Z,101787.27
2019-02-27T14:53:05.896Z,101781.59
2019-02-27T14:55:36.303Z,101770.44
2019-02-27T14:58:04.768Z,101772.06
2019-02-27T15:00:40.975Z,101764.44
2019-02-27T15:03:07.953Z,101756.63
2019-02-27T15:05:37.031Z,101749.72
2019-02-27T15:08:06.618Z,101744.67
2019-02-27T15:10:40.209Z,101736.22
2019-02-27T15:13:05.400Z,101735.67
2019-02-27T15:15:33.971Z,101723.84
2019-02-27T15:18:02.441Z,101716.98
2019-02-27T15:20:34.647Z,101715.23
2019-02-27T15:23:03.275Z,101706.98
2019-02-27T15:25:31.761Z,101698.14
2019-02-27T15:28:00.513Z,101692.73
2019-02-27T15:30:31.184Z,101689.17
2019-02-27T15:33:03.571Z,101685.20
2019-02-27T15:35:29.836Z,101681.36
2019-02-27T15:37:58.319Z,101683.27
2019-02-27T15:40:30.598Z,101685.02
2019-02-27T15:42:59.256Z,101690.69
2019-02-27T15:45:29.061Z,101676.49
2019-02-27T15:47:57.791Z,101672.45
2019-02-27T15:50:31.905Z,101666.77
2019-02-27T15:53:00.397Z,101671.89
2019-02-27T15:55:32.814Z,101666.17
2019-02-27T15:57:59.322Z,101657.02
2019-02-27T16:00:28.548Z,101645.39
2019-02-27T16:02:57.577Z,101638.85
2019-02-27T16:05:30.074Z,101635.48
2019-02-27T16:07:56.296Z,101631.62
2019-02-27T16:10:25.933Z,101624.14
2019-02-27T16:12:59.979Z,101613.12
2019-02-27T16:15:25.205Z,101618.59
2019-02-27T16:17:53.685Z,101614.27
2019-02-27T16:20:26.259Z,101623.02
2019-02-27T16:22:54.763Z,101622.78
2019-02-27T16:25:24.590Z,101621.55
2019-02-27T16:27:53.082Z,101621.75
2019-02-27T16:30:34.963Z,101615.28
2019-02-27T16:33:03.466Z,101610.95
2019-02-27T16:35:31.926Z,101616.06
2019-02-27T16:38:00.425Z,101611.30
2019-02-27T16:40:30.134Z,101600.72
2019-02-27T16:42:58.638Z,101593.77
2019-02-27T16:45:33.900Z,101589.92
2019-02-27T16:47:59.750Z,101593.67
2019-02-27T16:50:28.493Z,101597.47
2019-02-27T16:52:57.182Z,101590.05
2019-02-27T16:55:27.925Z,101583.50
2019-02-27T16:57:57.746Z,101576.52
2019-02-27T17:00:28.808Z,101583.88
2019-02-27T17:02:57.349Z,101583.25
2019-02-27T17:05:25.806Z,101574.92
2019-02-27T17:08:00.531Z,101575.17
2019-02-27T17:10:29.200Z,101566.81
2019-02-27T17:12:57.324Z,101564.73
2019-02-27T17:15:25.794Z,101560.08
2019-02-27T17:17:54.461Z,101552.19
2019-02-27T17:20:24.970Z,101549.77
2019-02-27T17:22:53.455Z,101550.35
2019-02-27T17:25:21.914Z,101544.27
2019-02-27T17:27:51.859Z,101546.67
2019-02-27T17:30:25.575Z,101550.44
2019-02-27T17:32:54.090Z,101540.39
2019-02-27T17:35:24.256Z,101540.60
2019-02-27T17:37:52.894Z,101544.34
2019-02-27T17:40:21.365Z,101533.75
2019-02-27T17:42:53.098Z,101529.92
2019-02-27T17:45:24.488Z,101526.06
2019-02-27T17:47:53.165Z,101519.03
2019-02-27T17:50:21.806Z,101516.45
2019-02-27T17:52:50.327Z,101512.02
2019-02-27T17:55:19.643Z,101512.18
2019-02-27T17:57:48.241Z,101505.09
2019-02-27T18:00:21.049Z,101502.98
2019-02-27T18:02:49.578Z,101497.77
2019-02-27T18:05:18.109Z,101500.59
2019-02-27T18:07:46.605Z,101497.59
2019-02-27T18:10:16.035Z,101495.45
2019-02-27T18:12:44.540Z,101493.36
2019-02-27T18:15:21.450Z,101488.62
2019-02-27T18:17:49.905Z,101482.88
2019-02-27T18:20:18.383Z,101481.22
2019-02-27T18:22:49.369Z,101474.67
2019-02-27T18:25:18.211Z,101472.62
2019-02-27T18:27:47.918Z,101470.50
2019-02-27T18:30:21.599Z,101466.16
2019-02-27T18:32:50.646Z,101471.28
2019-02-27T18:35:21.762Z,101468.23
2019-02-27T18:37:54.313Z,101465.63
2019-02-27T18:40:21.526Z,101459.55
2019-02-27T18:42:55.325Z,101455.62
2019-02-27T18:45:30.003Z,101453.09
2019-02-27T18:47:59.048Z,101448.75
2019-02-27T18:50:27.584Z,101442.60
2019-02-27T18:52:56.077Z,101428.47
2019-02-27T18:55:29.486Z,101428.31
2019-02-27T18:57:54.833Z,101424.44
2019-02-27T19:00:25.662Z,101419.25
2019-02-27T19:02:59.871Z,101414.73
2019-02-27T19:05:28.567Z,101410.39
2019-02-27T19:07:57.063Z,101413.26
2019-02-27T19:10:25.526Z,101412.47
2019-02-27T19:12:54.259Z,101398.59
2019-02-27T19:15:25.330Z,101395.66
2019-02-27T19:17:54.182Z,101388.73
2019-02-27T19:20:28.440Z,101391.38
2019-02-27T19:22:57.007Z,101387.45
2019-02-27T19:25:25.929Z,101385.32
2019-02-27T19:27:54.568Z,101378.24
2019-02-27T19:30:24.985Z,101368.07
2019-02-27T19:32:57.873Z,101356.07
2019-02-27T19:35:23.689Z,101344.09
2019-02-27T19:37:52.714Z,101339.27
2019-02-27T19:40:23.646Z,101339.44
2019-02-27T19:42:56.925Z,101342.65
2019-02-27T19:45:25.672Z,101344.02
2019-02-27T19:47:55.795Z,101329.27
2019-02-27T19:50:24.927Z,101328.08
2019-02-27T19:52:53.582Z,101324.15
2019-02-27T19:55:26.479Z,101319.23
2019-02-27T19:57:52.794Z,101318.79
2019-02-27T20:00:26.441Z,101315.23
2019-02-27T20:03:00.326Z,101305.39
2019-02-27T20:05:25.410Z,101300.64
2019-02-27T20:07:54.502Z,101293.13
2019-02-27T20:10:23.285Z,101296.74
2019-02-27T20:12:53.682Z,101286.55
2019-02-27T20:15:23.620Z,101277.27
2019-02-27T20:17:52.182Z,101276.88
2019-02-27T20:20:21.788Z,101277.96
2019-02-27T20:22:53.555Z,101269.87
2019-02-27T20:25:23.606Z,101269.05
2019-02-27T20:27:52.249Z,101261.98
2019-02-27T20:30:24.850Z,101253.63
2019-02-27T20:32:53.463Z,101252.78
2019-02-27T20:35:22.310Z,101245.33
2019-02-27T20:37:51.032Z,101240.87
2019-02-27T20:40:20.769Z,101240.00
2019-02-27T20:42:50.770Z,101233.98
2019-02-27T20:45:23.882Z,101228.18
2019-02-27T20:47:57.746Z,101229.58
2019-02-27T20:50:41.194Z,101227.86
2019-02-27T20:53:12.546Z,101219.97
2019-02-27T20:55:42.537Z,101204.87
2019-02-27T20:58:16.374Z,101207.23
2019-02-27T21:00:41.220Z,101204.23
2019-02-27T21:03:09.691Z,101205.13
2019-02-27T21:05:40.999Z,101199.89
2019-02-27T21:08:08.823Z,101193.78
2019-02-27T21:10:37.319Z,101190.32
2019-02-27T21:13:05.971Z,101185.46
2019-02-27T21:15:34.944Z,101175.69
2019-02-27T21:18:03.403Z,101171.34
2019-02-27T21:20:33.276Z,101171.11
2019-02-27T21:23:01.935Z,101167.50
2019-02-27T21:25:30.436Z,101160.47
2019-02-27T21:27:58.921Z,101157.41
2019-02-27T21:30:27.426Z,101154.41
2019-02-27T21:32:55.904Z,101147.80
2019-02-27T21:35:28.854Z,101148.00
2019-02-27T21:37:54.862Z,101143.59
2019-02-27T21:40:23.347Z,101140.20
2019-02-27T21:42:52.035Z,101142.36
2019-02-27T21:45:22.140Z,101130.98
2019-02-27T21:47:51.811Z,101131.39
2019-02-27T21:50:27.336Z,101122.95
2019-02-27T21:52:55.963Z,101116.35
2019-02-27T21:55:24.646Z,101116.84
2019-02-27T21:57:53.287Z,101112.50
2019-02-27T22:00:26.156Z,101097.45
2019-02-27T22:02:55.959Z,101095.27
2019-02-27T22:05:24.786Z,101089.97
2019-02-27T22:07:53.511Z,101092.23
2019-02-27T22:10:22.005Z,101088.78
2019-02-27T22:12:50.539Z,101090.66
2019-02-27T22:15:27.591Z,101081.30
2019-02-27T22:17:56.220Z,101069.44
2019-02-27T22:20:25.841Z,101067.28
2019-02-27T22:22:54.907Z,101068.78
2019-02-27T22:25:23.617Z,101067.77
2019-02-27T22:27:52.094Z,101062.77
2019-02-27T22:30:21.617Z,101063.63
2019-02-27T22:32:50.265Z,101063.09
2019-02-27T22:35:19.022Z,101056.10
2019-02-27T22:37:51.315Z,101060.09
2019-02-27T22:40:22.165Z,101053.42
2019-02-27T22:42:50.885Z,101051.20
2019-02-27T22:45:20.420Z,101057.44
2019-02-27T22:47:53.786Z,101046.34
2019-02-27T22:50:21.963Z,101039.27
2019-02-27T22:52:54.208Z,101038.00
2019-02-27T22:55:20.720Z,101039.00
2019-02-27T22:57:49.253Z,101029.59
2019-02-27T23:00:25.156Z,101028.70
2019-02-27T23:02:54.173Z,101022.50
2019-02-27T23:05:22.663Z,101012.02
2019-02-27T23:07:52.338Z,101004.00
2019-02-27T23:10:21.006Z,101000.39
2019-02-27T23:12:49.491Z,100995.19
2019-02-27T23:15:17.977Z,100992.05
2019-02-27T23:17:46.460Z,100985.92
2019-02-27T23:20:17.457Z,100976.16
2019-02-27T23:22:45.634Z,100976.24
2019-02-27T23:25:15.607Z,100970.95
2019-02-27T23:27:44.499Z,100963.48
2019-02-27T23:30:15.919Z,100956.91
2019-02-27T23:32:43.540Z,100950.67
2019-02-27T23:35:15.992Z,100946.23
2019-02-27T23:37:42.235Z,100941.84
2019-02-27T23:40:10.880Z,100941.52
2019-02-27T23:42:39.367Z,100944.59
2019-02-27T23:45:10.941Z,100946.45
2019-02-27T23:47:39.568Z,100939.52
2019-02-27T23:50:12.072Z,100937.88
2019-02-27T23:52:40.555Z,100928.19
2019-02-27T23:55:10.065Z,100930.34
2019-02-27T23:57:39.258Z,100925.67
